Jean Anne — WDC3786 — position and weather

sailwx.info

Track history (hours):
 
Tides and Currents Weather Stations Pressure Air Temp Water Temp Dewpoint Dewpoint Depression Visibility Wind Speed Wind Dir Waves Ship Positions

Jean Anne

Owner: PASHA HAWAII TRANSPORT LINES LLC, National City, CA. More information available from US FCC via Universal Licensing System and Coast Guard Vessel Documentation Center.

Last reported at 2016-Jul-29 19:18 UTC. Time now 2016-Jul-30 16:55 UTC.
Position N 28°59' W 131°40'.

Type: Cargo ship. MMSI: 367003380.

Date/timePositionNaut miles runAvg speedWind from/ knotsBaromVisibWave heightAir tempDewpointWater temp
2016-Jul-29 19:18N 28°59' W 131°40'3022.7
2016-Jul-29 18:00N 29°00' W 131°06'1015.5 010 / 131019.010.8 1.019.017.5
2016-Jul-29 17:22N 29°07' W 130°58'2019.3
2016-Jul-29 16:21N 29°11' W 130°36'1819.4
2016-Jul-29 15:26N 29°14' W 130°16'3619.3
2016-Jul-29 13:34N 29°22' W 129°35'1919.3
2016-Jul-29 12:33N 29°25' W 129°14'4619.4
2016-Jul-29 10:11N 29°34' W 128°22'3919.6
2016-Jul-29 08:12N 29°41' W 127°38'3419.6
2016-Jul-29 06:28N 29°47' W 126°59'1819.3
2016-Jul-29 05:33N 29°50' W 126°39'1919.2
2016-Jul-29 04:33N 29°54' W 126°18'4219.1
2016-Jul-29 02:21N 30°00' W 125°29'4319.3
2016-Jul-29 00:06N 30°07' W 124°40'1519.2
2016-Jul-28 23:20N 30°09' W 124°23'1519.3
2016-Jul-28 22:33N 30°11' W 124°06'1919.2
2016-Jul-28 21:33N 30°14' W 123°44'1919.3
2016-Jul-28 20:33N 30°17' W 123°22'1919.0
2016-Jul-28 19:34N 30°20' W 123°00'1918.8
2016-Jul-28 18:33N 30°22' W 122°38'1918.8
2016-Jul-28 17:33N 30°25' W 122°17'1918.7
2016-Jul-28 16:33N 30°27' W 121°55'1918.7
2016-Jul-28 15:33N 30°31' W 121°34'1918.8
2016-Jul-28 14:33N 30°34' W 121°13'1918.9
2016-Jul-28 13:33N 30°38' W 120°51'1919.3
2016-Jul-28 12:33N 30°42' W 120°29'1919.3
2016-Jul-28 11:33N 30°46' W 120°07'1919.2
2016-Jul-28 10:33N 30°50' W 119°45'1919.0
2016-Jul-28 09:33N 30°54' W 119°24'1918.7
2016-Jul-28 08:33N 30°58' W 119°02'1919.2
2016-Jul-28 07:33N 31°02' W 118°40'1918.8
2016-Jul-28 06:33N 31°15' W 118°25'2019.7
2016-Jul-28 05:34N 31°31' W 118°11'1919.4
2016-Jul-28 04:34N 31°47' W 117°58'2019.4
2016-Jul-28 03:33N 32°03' W 117°44'1818.1
2016-Jul-28 02:33N 32°17' W 117°32'1615.6
2016-Jul-28 01:33N 32°30' W 117°21'1414.0
2016-Jul-28 00:33N 32°42' W 117°14'6 5.6
2016-Jul-27 23:27N 32°39' W 117°07'0 0.0
2016-Jul-27 22:32N 32°39' W 117°07'0 0.0
2016-Jul-27 21:23N 32°39' W 117°07'0 0.0
2016-Jul-27 20:29N 32°39' W 117°07'0 0.0
2016-Jul-27 19:32N 32°39' W 117°07'0 0.0
2016-Jul-27 18:32N 32°39' W 117°07'0 0.0
2016-Jul-27 17:32N 32°39' W 117°07'0 0.0
2016-Jul-27 16:26N 32°39' W 117°07'0 0.0
2016-Jul-27 15:32N 32°39' W 117°07'0 0.0
2016-Jul-27 14:32N 32°39' W 117°07'0 0.0
2016-Jul-27 13:32N 32°39' W 117°07'0 0.0
2016-Jul-27 12:32N 32°39' W 117°07'0 0.0
2016-Jul-27 11:32N 32°39' W 117°07'0 0.0
2016-Jul-27 10:32N 32°39' W 117°07'0 0.0
2016-Jul-27 09:32N 32°39' W 117°07'0 0.0
2016-Jul-27 08:32N 32°39' W 117°07'0 0.0
2016-Jul-27 07:32N 32°39' W 117°07'0 0.0
2016-Jul-27 06:32N 32°39' W 117°07'0 0.0
2016-Jul-27 05:29N 32°39' W 117°07'0 0.0
2016-Jul-27 04:26N 32°39' W 117°07'0 0.0
2016-Jul-27 03:32N 32°39' W 117°07'0 0.0
2016-Jul-27 02:32N 32°39' W 117°07'0 0.0
2016-Jul-27 01:32N 32°39' W 117°07'0 0.0
2016-Jul-27 00:29N 32°39' W 117°07'0 0.0
2016-Jul-26 23:29N 32°39' W 117°07'0 0.0
2016-Jul-26 22:32N 32°39' W 117°07'0 0.0
2016-Jul-26 21:32N 32°39' W 117°07'0 0.0
2016-Jul-26 20:32N 32°39' W 117°07'0 0.0
2016-Jul-26 19:32N 32°39' W 117°07'1 1.4
2016-Jul-26 18:33N 32°41' W 117°08'7 6.6
2016-Jul-26 17:33N 32°37' W 117°14'1312.9
2016-Jul-26 16:33N 32°27' W 117°24'1615.7
2016-Jul-26 15:34N 32°14' W 117°35'1817.7
2016-Jul-26 14:33N 31°60' W 117°47'1817.8
2016-Jul-26 13:34N 31°45' W 117°59'1717.4
2016-Jul-26 12:34N 31°31' W 118°11'1717.2
2016-Jul-26 11:34N 31°17' W 118°23'1717.1
2016-Jul-26 10:33N 31°03' W 118°35'1717.3
2016-Jul-26 09:33N 30°59' W 118°54'1818.0
2016-Jul-26 08:34N 30°54' W 119°14'1818.0
2016-Jul-26 07:34N 30°49' W 119°35'2019.7
2016-Jul-26 06:33N 30°44' W 119°57'4519.8
2016-Jul-26 04:17N 30°32' W 120°47'18919.4
2016-Jul-25 18:32N 29°43' W 124°19'1 2.8
2016-Jul-25 18:00N 29°42' W 124°18'3925.6 020 / 241016.5 5.4 1.518.014.8
2016-Jul-25 16:29N 29°33' W 125°02'2318.6
2016-Jul-25 15:13N 29°27' W 125°28'1218.5
2016-Jul-25 14:34N 29°24' W 125°41'8018.3
2016-Jul-25 10:11N 29°03' W 127°10'3318.0
2016-Jul-25 08:20N 28°55' W 127°46'1718.2
2016-Jul-25 07:24N 28°50' W 128°05'1817.8
2016-Jul-25 06:24N 28°46' W 128°25'19818.2
2016-Jul-24 19:33N 27°54' W 132°01'8219.3
2016-Jul-24 15:18N 27°33' W 133°31'1419.4
2016-Jul-24 14:34N 27°29' W 133°47'12119.5
2016-Jul-24 08:22N 26°58' W 135°58'1819.4
2016-Jul-24 07:25N 26°53' W 136°18'  
Track history (hours):
 
Tides and Currents Weather Stations Pressure Air Temp Water Temp Dewpoint Dewpoint Depression Visibility Wind Speed Wind Dir Waves Ship Positions

Jean Anne

Owner: PASHA HAWAII TRANSPORT LINES LLC, National City, CA. More information available from US FCC via Universal Licensing System and Coast Guard Vessel Documentation Center.

Last reported at 2016-Jul-29 19:18 UTC. Time now 2016-Jul-30 16:55 UTC.
Position N 28°59' W 131°40'.

Type: Cargo ship. MMSI: 367003380.

Date/timePositionNaut miles runAvg speedWind from/ knotsBaromVisibWave heightAir tempDewpointWater temp
2016-Jul-29 19:18N 28°59' W 131°40'3022.7
2016-Jul-29 18:00N 29°00' W 131°06'1015.5 010 / 131019.010.8 1.019.017.5
2016-Jul-29 17:22N 29°07' W 130°58'2019.3
2016-Jul-29 16:21N 29°11' W 130°36'1819.4
2016-Jul-29 15:26N 29°14' W 130°16'3619.3
2016-Jul-29 13:34N 29°22' W 129°35'1919.3
2016-Jul-29 12:33N 29°25' W 129°14'4619.4
2016-Jul-29 10:11N 29°34' W 128°22'3919.6
2016-Jul-29 08:12N 29°41' W 127°38'3419.6
2016-Jul-29 06:28N 29°47' W 126°59'1819.3
2016-Jul-29 05:33N 29°50' W 126°39'1919.2
2016-Jul-29 04:33N 29°54' W 126°18'4219.1
2016-Jul-29 02:21N 30°00' W 125°29'4319.3
2016-Jul-29 00:06N 30°07' W 124°40'1519.2
2016-Jul-28 23:20N 30°09' W 124°23'1519.3
2016-Jul-28 22:33N 30°11' W 124°06'1919.2
2016-Jul-28 21:33N 30°14' W 123°44'1919.3
2016-Jul-28 20:33N 30°17' W 123°22'1919.0
2016-Jul-28 19:34N 30°20' W 123°00'1918.8
2016-Jul-28 18:33N 30°22' W 122°38'1918.8
2016-Jul-28 17:33N 30°25' W 122°17'1918.7
2016-Jul-28 16:33N 30°27' W 121°55'1918.7
2016-Jul-28 15:33N 30°31' W 121°34'1918.8
2016-Jul-28 14:33N 30°34' W 121°13'1918.9
2016-Jul-28 13:33N 30°38' W 120°51'1919.3
2016-Jul-28 12:33N 30°42' W 120°29'1919.3
2016-Jul-28 11:33N 30°46' W 120°07'1919.2
2016-Jul-28 10:33N 30°50' W 119°45'1919.0
2016-Jul-28 09:33N 30°54' W 119°24'1918.7
2016-Jul-28 08:33N 30°58' W 119°02'1919.2
2016-Jul-28 07:33N 31°02' W 118°40'1918.8
2016-Jul-28 06:33N 31°15' W 118°25'2019.7
2016-Jul-28 05:34N 31°31' W 118°11'1919.4
2016-Jul-28 04:34N 31°47' W 117°58'2019.4
2016-Jul-28 03:33N 32°03' W 117°44'1818.1
2016-Jul-28 02:33N 32°17' W 117°32'1615.6
2016-Jul-28 01:33N 32°30' W 117°21'1414.0
2016-Jul-28 00:33N 32°42' W 117°14'6 5.6
2016-Jul-27 23:27N 32°39' W 117°07'0 0.0
2016-Jul-27 22:32N 32°39' W 117°07'0 0.0
2016-Jul-27 21:23N 32°39' W 117°07'0 0.0
2016-Jul-27 20:29N 32°39' W 117°07'0 0.0
2016-Jul-27 19:32N 32°39' W 117°07'0 0.0
2016-Jul-27 18:32N 32°39' W 117°07'0 0.0
2016-Jul-27 17:32N 32°39' W 117°07'0 0.0
2016-Jul-27 16:26N 32°39' W 117°07'0 0.0
2016-Jul-27 15:32N 32°39' W 117°07'0 0.0
2016-Jul-27 14:32N 32°39' W 117°07'0 0.0
2016-Jul-27 13:32N 32°39' W 117°07'0 0.0
2016-Jul-27 12:32N 32°39' W 117°07'0 0.0
2016-Jul-27 11:32N 32°39' W 117°07'0 0.0
2016-Jul-27 10:32N 32°39' W 117°07'0 0.0
2016-Jul-27 09:32N 32°39' W 117°07'0 0.0
2016-Jul-27 08:32N 32°39' W 117°07'0 0.0
2016-Jul-27 07:32N 32°39' W 117°07'0 0.0
2016-Jul-27 06:32N 32°39' W 117°07'0 0.0
2016-Jul-27 05:29N 32°39' W 117°07'0 0.0
2016-Jul-27 04:26N 32°39' W 117°07'0 0.0
2016-Jul-27 03:32N 32°39' W 117°07'0 0.0
2016-Jul-27 02:32N 32°39' W 117°07'0 0.0
2016-Jul-27 01:32N 32°39' W 117°07'0 0.0
2016-Jul-27 00:29N 32°39' W 117°07'0 0.0
2016-Jul-26 23:29N 32°39' W 117°07'0 0.0
2016-Jul-26 22:32N 32°39' W 117°07'0 0.0
2016-Jul-26 21:32N 32°39' W 117°07'0 0.0
2016-Jul-26 20:32N 32°39' W 117°07'0 0.0
2016-Jul-26 19:32N 32°39' W 117°07'1 1.4
2016-Jul-26 18:33N 32°41' W 117°08'7 6.6
2016-Jul-26 17:33N 32°37' W 117°14'1312.9
2016-Jul-26 16:33N 32°27' W 117°24'1615.7
2016-Jul-26 15:34N 32°14' W 117°35'1817.7
2016-Jul-26 14:33N 31°60' W 117°47'1817.8
2016-Jul-26 13:34N 31°45' W 117°59'1717.4
2016-Jul-26 12:34N 31°31' W 118°11'1717.2
2016-Jul-26 11:34N 31°17' W 118°23'1717.1
2016-Jul-26 10:33N 31°03' W 118°35'1717.3
2016-Jul-26 09:33N 30°59' W 118°54'1818.0
2016-Jul-26 08:34N 30°54' W 119°14'1818.0
2016-Jul-26 07:34N 30°49' W 119°35'2019.7
2016-Jul-26 06:33N 30°44' W 119°57'4519.8
2016-Jul-26 04:17N 30°32' W 120°47'18919.4
2016-Jul-25 18:32N 29°43' W 124°19'1 2.8
2016-Jul-25 18:00N 29°42' W 124°18'3925.6 020 / 241016.5 5.4 1.518.014.8
2016-Jul-25 16:29N 29°33' W 125°02'2318.6
2016-Jul-25 15:13N 29°27' W 125°28'1218.5
2016-Jul-25 14:34N 29°24' W 125°41'8018.3
2016-Jul-25 10:11N 29°03' W 127°10'3318.0
2016-Jul-25 08:20N 28°55' W 127°46'1718.2
2016-Jul-25 07:24N 28°50' W 128°05'1817.8
2016-Jul-25 06:24N 28°46' W 128°25'19818.2
2016-Jul-24 19:33N 27°54' W 132°01'8219.3
2016-Jul-24 15:18N 27°33' W 133°31'1419.4
2016-Jul-24 14:34N 27°29' W 133°47'12119.5
2016-Jul-24 08:22N 26°58' W 135°58'1819.4
2016-Jul-24 07:25N 26°53' W 136°18'  

Dump ship's entire track history